sensor_id;sensor_type;location;lat;lon;timestamp;pressure;altitude;pressure_sealevel;temperature;humidity
31285;BME280;56605;51.516;6.742;2022-07-29T00:01:03;101387.63;;;18.36;52.80
31285;BME280;56605;51.516;6.742;2022-07-29T00:03:29;101382.00;;;18.38;52.94
31285;BME280;56605;51.516;6.742;2022-07-29T00:05:54;101381.16;;;18.31;53.36
31285;BME280;56605;51.516;6.742;2022-07-29T00:08:20;101385.31;;;18.33;53.00
31285;BME280;56605;51.516;6.742;2022-07-29T00:10:45;101374.91;;;18.30;52.86
31285;BME280;56605;51.516;6.742;2022-07-29T00:13:11;101381.38;;;18.29;52.86
31285;BME280;56605;51.516;6.742;2022-07-29T00:15:36;101381.59;;;18.34;52.88
31285;BME280;56605;51.516;6.742;2022-07-29T00:18:02;101373.06;;;18.31;52.99
31285;BME280;56605;51.516;6.742;2022-07-29T00:20:27;101376.16;;;18.28;52.89
31285;BME280;56605;51.516;6.742;2022-07-29T00:22:52;101371.59;;;18.28;52.75
31285;BME280;56605;51.516;6.742;2022-07-29T00:25:18;101371.19;;;18.31;52.51
31285;BME280;56605;51.516;6.742;2022-07-29T00:27:44;101364.09;;;18.30;52.69
31285;BME280;56605;51.516;6.742;2022-07-29T00:30:11;101343.75;;;18.21;53.19
31285;BME280;56605;51.516;6.742;2022-07-29T00:32:37;101349.53;;;18.24;53.01
31285;BME280;56605;51.516;6.742;2022-07-29T00:35:02;101338.53;;;18.19;53.17
31285;BME280;56605;51.516;6.742;2022-07-29T00:37:47;101340.00;;;18.22;53.03
31285;BME280;56605;51.516;6.742;2022-07-29T00:40:12;101337.28;;;18.15;53.26
31285;BME280;56605;51.516;6.742;2022-07-29T00:42:44;101327.25;;;18.09;53.56
31285;BME280;56605;51.516;6.742;2022-07-29T00:45:10;101330.34;;;18.06;53.96
31285;BME280;56605;51.516;6.742;2022-07-29T00:47:35;101320.22;;;18.15;53.73
31285;BME280;56605;51.516;6.742;2022-07-29T00:50:00;101312.06;;;18.01;54.16
31285;BME280;56605;51.516;6.742;2022-07-29T00:52:26;101316.41;;;17.95;54.42
31285;BME280;56605;51.516;6.742;2022-07-29T00:54:52;101311.84;;;17.96;54.34
31285;BME280;56605;51.516;6.742;2022-07-29T00:57:17;101313.09;;;18.00;54.28
31285;BME280;56605;51.516;6.742;2022-07-29T00:59:43;101299.59;;;18.00;54.11
31285;BME280;56605;51.516;6.742;2022-07-29T01:02:08;101305.59;;;17.95;54.11
31285;BME280;56605;51.516;6.742;2022-07-29T01:04:33;101297.50;;;17.95;54.26
31285;BME280;56605;51.516;6.742;2022-07-29T01:07:01;101285.44;;;17.91;54.50
31285;BME280;56605;51.516;6.742;2022-07-29T01:09:27;101294.16;;;17.93;54.85
31285;BME280;56605;51.516;6.742;2022-07-29T01:11:53;101293.94;;;17.88;54.67
31285;BME280;56605;51.516;6.742;2022-07-29T01:14:20;101291.84;;;17.83;55.25
31285;BME280;56605;51.516;6.742;2022-07-29T01:16:51;101292.06;;;17.82;54.94
31285;BME280;56605;51.516;6.742;2022-07-29T01:25:17;101293.06;;;17.74;55.18
31285;BME280;56605;51.516;6.742;2022-07-29T01:27:56;101292.03;;;17.75;55.28
31285;BME280;56605;51.516;6.742;2022-07-29T01:30:26;101289.47;;;17.60;56.00
31285;BME280;56605;51.516;6.742;2022-07-29T01:32:56;101299.69;;;17.65;55.68
31285;BME280;56605;51.516;6.742;2022-07-29T01:35:26;101296.38;;;17.69;55.55
31285;BME280;56605;51.516;6.742;2022-07-29T01:38:13;101294.34;;;17.78;55.51
31285;BME280;56605;51.516;6.742;2022-07-29T01:43:09;101291.41;;;17.73;55.54
31285;BME280;56605;51.516;6.742;2022-07-29T01:45:41;101284.94;;;17.67;55.68
31285;BME280;56605;51.516;6.742;2022-07-29T01:50:46;101278.69;;;17.60;56.05
31285;BME280;56605;51.516;6.742;2022-07-29T01:53:14;101277.00;;;17.52;56.24
31285;BME280;56605;51.516;6.742;2022-07-29T01:55:44;101277.00;;;17.52;56.41
31285;BME280;56605;51.516;6.742;2022-07-29T01:58:12;101272.22;;;17.54;56.33
31285;BME280;56605;51.516;6.742;2022-07-29T02:00:39;101270.34;;;17.55;56.74
31285;BME280;56605;51.516;6.742;2022-07-29T02:03:08;101278.63;;;17.53;56.57
31285;BME280;56605;51.516;6.742;2022-07-29T02:05:35;101277.38;;;17.49;57.64
31285;BME280;56605;51.516;6.742;2022-07-29T02:08:04;101283.34;;;17.38;57.39
31285;BME280;56605;51.516;6.742;2022-07-29T02:10:32;101284.03;;;17.46;56.74
31285;BME280;56605;51.516;6.742;2022-07-29T02:12:59;101282.75;;;17.42;56.84
31285;BME280;56605;51.516;6.742;2022-07-29T02:15:29;101276.13;;;17.45;56.95
31285;BME280;56605;51.516;6.742;2022-07-29T02:18:02;101273.00;;;17.41;56.89
31285;BME280;56605;51.516;6.742;2022-07-29T02:20:30;101265.72;;;17.42;56.70
31285;BME280;56605;51.516;6.742;2022-07-29T02:22:58;101276.53;;;17.42;56.81
31285;BME280;56605;51.516;6.742;2022-07-29T02:25:25;101293.16;;;17.45;56.75
31285;BME280;56605;51.516;6.742;2022-07-29T02:27:52;101286.75;;;17.53;56.68
31285;BME280;56605;51.516;6.742;2022-07-29T02:30:18;101299.81;;;17.49;56.74
31285;BME280;56605;51.516;6.742;2022-07-29T02:32:46;101305.69;;;17.60;56.95
31285;BME280;56605;51.516;6.742;2022-07-29T02:35:14;101324.31;;;17.48;57.15
31285;BME280;56605;51.516;6.742;2022-07-29T02:37:42;101335.69;;;17.36;57.77
31285;BME280;56605;51.516;6.742;2022-07-29T02:40:10;101335.50;;;17.45;58.37
31285;BME280;56605;51.516;6.742;2022-07-29T02:42:38;101323.75;;;17.59;58.37
31285;BME280;56605;51.516;6.742;2022-07-29T02:45:06;101317.28;;;17.54;58.31
31285;BME280;56605;51.516;6.742;2022-07-29T02:47:50;101328.31;;;17.59;58.44
31285;BME280;56605;51.516;6.742;2022-07-29T02:50:30;101342.63;;;17.53;58.11
31285;BME280;56605;51.516;6.742;2022-07-29T02:53:02;101342.34;;;17.41;58.36
31285;BME280;56605;51.516;6.742;2022-07-29T02:55:40;101337.97;;;17.40;58.48
31285;BME280;56605;51.516;6.742;2022-07-29T02:58:18;101332.97;;;17.36;58.86
31285;BME280;56605;51.516;6.742;2022-07-29T03:00:47;101330.03;;;17.31;59.48
31285;BME280;56605;51.516;6.742;2022-07-29T03:03:16;101334.41;;;17.32;59.80
31285;BME280;56605;51.516;6.742;2022-07-29T03:05:43;101334.53;;;17.24;60.50
31285;BME280;56605;51.516;6.742;2022-07-29T03:08:11;101332.00;;;17.16;61.40
31285;BME280;56605;51.516;6.742;2022-07-29T03:10:39;101328.16;;;17.03;64.91
31285;BME280;56605;51.516;6.742;2022-07-29T03:13:09;101326.72;;;16.79;69.46
31285;BME280;56605;51.516;6.742;2022-07-29T03:15:35;101327.53;;;16.51;71.07
31285;BME280;56605;51.516;6.742;2022-07-29T03:18:01;101326.75;;;16.35;71.00
31285;BME280;56605;51.516;6.742;2022-07-29T03:20:27;101327.06;;;16.25;74.69
31285;BME280;56605;51.516;6.742;2022-07-29T03:22:52;101331.66;;;16.09;73.84
31285;BME280;56605;51.516;6.742;2022-07-29T03:25:19;101322.66;;;16.02;75.43
31285;BME280;56605;51.516;6.742;2022-07-29T03:27:45;101322.84;;;16.01;75.67
31285;BME280;56605;51.516;6.742;2022-07-29T03:30:12;101326.19;;;16.03;74.65
31285;BME280;56605;51.516;6.742;2022-07-29T03:32:38;101333.84;;;15.99;75.64
31285;BME280;56605;51.516;6.742;2022-07-29T03:35:05;101347.19;;;15.92;76.83
31285;BME280;56605;51.516;6.742;2022-07-29T03:37:31;101342.72;;;16.00;76.99
31285;BME280;56605;51.516;6.742;2022-07-29T03:39:57;101342.91;;;15.98;74.60
31285;BME280;56605;51.516;6.742;2022-07-29T03:42:25;101340.50;;;16.03;74.26
31285;BME280;56605;51.516;6.742;2022-07-29T03:44:52;101341.59;;;15.94;74.67
31285;BME280;56605;51.516;6.742;2022-07-29T03:47:20;101344.09;;;15.95;76.61
31285;BME280;56605;51.516;6.742;2022-07-29T03:49:49;101343.25;;;15.95;74.25
31285;BME280;56605;51.516;6.742;2022-07-29T03:52:16;101347.75;;;16.03;75.87
31285;BME280;56605;51.516;6.742;2022-07-29T03:54:41;101354.78;;;16.04;74.93
31285;BME280;56605;51.516;6.742;2022-07-29T03:57:07;101363.72;;;16.04;74.31
31285;BME280;56605;51.516;6.742;2022-07-29T03:59:36;101380.72;;;16.05;73.31
31285;BME280;56605;51.516;6.742;2022-07-29T04:02:04;101401.78;;;16.01;74.67
31285;BME280;56605;51.516;6.742;2022-07-29T04:04:34;101399.75;;;16.03;73.91
31285;BME280;56605;51.516;6.742;2022-07-29T04:06:59;101386.09;;;16.05;74.30
31285;BME280;56605;51.516;6.742;2022-07-29T04:09:25;101376.63;;;16.09;72.83
31285;BME280;56605;51.516;6.742;2022-07-29T04:11:50;101369.09;;;16.04;73.74
31285;BME280;56605;51.516;6.742;2022-07-29T04:14:16;101365.13;;;16.00;73.75
31285;BME280;56605;51.516;6.742;2022-07-29T04:16:41;101372.63;;;16.05;73.42
31285;BME280;56605;51.516;6.742;2022-07-29T04:19:06;101388.50;;;16.00;75.22
31285;BME280;56605;51.516;6.742;2022-07-29T04:21:37;101407.25;;;15.78;76.99
31285;BME280;56605;51.516;6.742;2022-07-29T04:24:02;101399.00;;;15.64;80.09
31285;BME280;56605;51.516;6.742;2022-07-29T04:26:28;101381.53;;;15.45;85.07
31285;BME280;56605;51.516;6.742;2022-07-29T04:28:53;101357.31;;;15.30;87.71
31285;BME280;56605;51.516;6.742;2022-07-29T04:31:18;101347.28;;;15.08;89.44
31285;BME280;56605;51.516;6.742;2022-07-29T04:33:44;101351.91;;;15.00;92.30
31285;BME280;56605;51.516;6.742;2022-07-29T04:36:09;101350.47;;;14.89;93.74
31285;BME280;56605;51.516;6.742;2022-07-29T04:38:36;101334.53;;;14.87;92.13
31285;BME280;56605;51.516;6.742;2022-07-29T04:41:01;101332.88;;;14.86;91.98
31285;BME280;56605;51.516;6.742;2022-07-29T04:43:27;101332.56;;;14.81;93.33
31285;BME280;56605;51.516;6.742;2022-07-29T04:45:52;101347.88;;;14.80;92.41
31285;BME280;56605;51.516;6.742;2022-07-29T04:48:17;101342.31;;;14.82;92.42
31285;BME280;56605;51.516;6.742;2022-07-29T04:50:43;101340.09;;;14.86;92.08
31285;BME280;56605;51.516;6.742;2022-07-29T04:53:09;101320.81;;;14.82;92.87
31285;BME280;56605;51.516;6.742;2022-07-29T04:55:34;101311.78;;;14.75;92.83
31285;BME280;56605;51.516;6.742;2022-07-29T04:58:01;101309.31;;;14.65;93.49
31285;BME280;56605;51.516;6.742;2022-07-29T05:00:27;101312.19;;;14.63;92.67
31285;BME280;56605;51.516;6.742;2022-07-29T05:02:52;101304.31;;;14.62;92.82
31285;BME280;56605;51.516;6.742;2022-07-29T05:05:18;101308.50;;;14.64;93.15
31285;BME280;56605;51.516;6.742;2022-07-29T05:07:43;101321.94;;;14.64;95.02
31285;BME280;56605;51.516;6.742;2022-07-29T05:10:09;101327.94;;;14.66;96.48
31285;BME280;56605;51.516;6.742;2022-07-29T05:12:34;101323.34;;;14.75;98.88
31285;BME280;56605;51.516;6.742;2022-07-29T05:14:59;101318.09;;;14.58;95.08
31285;BME280;56605;51.516;6.742;2022-07-29T05:17:25;101325.53;;;14.56;95.65
31285;BME280;56605;51.516;6.742;2022-07-29T05:19:50;101344.59;;;14.62;96.68
31285;BME280;56605;51.516;6.742;2022-07-29T05:22:20;101340.50;;;14.74;98.10
31285;BME280;56605;51.516;6.742;2022-07-29T05:24:46;101345.56;;;14.69;98.76
31285;BME280;56605;51.516;6.742;2022-07-29T05:27:11;101348.31;;;14.61;100.00
31285;BME280;56605;51.516;6.742;2022-07-29T05:29:37;101338.34;;;14.46;97.83
31285;BME280;56605;51.516;6.742;2022-07-29T05:32:03;101344.75;;;14.45;99.61
31285;BME280;56605;51.516;6.742;2022-07-29T05:34:28;101333.94;;;14.53;100.00
31285;BME280;56605;51.516;6.742;2022-07-29T05:36:54;101337.88;;;14.42;98.65
31285;BME280;56605;51.516;6.742;2022-07-29T05:39:19;101332.81;;;14.48;98.84
31285;BME280;56605;51.516;6.742;2022-07-29T05:41:44;101320.94;;;14.42;99.27
31285;BME280;56605;51.516;6.742;2022-07-29T05:44:10;101319.13;;;14.34;100.00
31285;BME280;56605;51.516;6.742;2022-07-29T05:46:36;101324.97;;;14.38;100.00
31285;BME280;56605;51.516;6.742;2022-07-29T05:49:01;101327.00;;;14.36;98.54
31285;BME280;56605;51.516;6.742;2022-07-29T05:51:28;101334.03;;;14.37;98.18
31285;BME280;56605;51.516;6.742;2022-07-29T05:53:53;101345.75;;;14.44;99.05
31285;BME280;56605;51.516;6.742;2022-07-29T05:56:18;101348.50;;;14.36;98.45
31285;BME280;56605;51.516;6.742;2022-07-29T05:58:43;101349.34;;;14.36;99.46
31285;BME280;56605;51.516;6.742;2022-07-29T06:01:09;101352.22;;;14.35;97.50
31285;BME280;56605;51.516;6.742;2022-07-29T06:03:34;101344.16;;;14.35;96.62
31285;BME280;56605;51.516;6.742;2022-07-29T06:06:00;101333.41;;;14.35;96.54
31285;BME280;56605;51.516;6.742;2022-07-29T06:08:25;101342.28;;;14.35;97.05
31285;BME280;56605;51.516;6.742;2022-07-29T06:10:50;101340.78;;;14.32;98.10
31285;BME280;56605;51.516;6.742;2022-07-29T06:13:15;101335.41;;;14.32;97.38
31285;BME280;56605;51.516;6.742;2022-07-29T06:15:41;101335.84;;;14.44;97.36
31285;BME280;56605;51.516;6.742;2022-07-29T06:18:07;101334.28;;;14.50;96.87
31285;BME280;56605;51.516;6.742;2022-07-29T06:20:34;101337.81;;;14.51;97.13
31285;BME280;56605;51.516;6.742;2022-07-29T06:23:00;101324.50;;;14.57;97.96
31285;BME280;56605;51.516;6.742;2022-07-29T06:25:26;101310.78;;;14.52;96.67
31285;BME280;56605;51.516;6.742;2022-07-29T06:27:54;101316.56;;;14.64;97.02
31285;BME280;56605;51.516;6.742;2022-07-29T06:30:19;101320.44;;;14.62;95.91
31285;BME280;56605;51.516;6.742;2022-07-29T06:32:44;101313.50;;;14.67;97.19
31285;BME280;56605;51.516;6.742;2022-07-29T06:35:10;101312.41;;;14.77;96.65
31285;BME280;56605;51.516;6.742;2022-07-29T06:37:35;101317.34;;;14.73;96.55
31285;BME280;56605;51.516;6.742;2022-07-29T06:40:00;101302.47;;;14.62;97.29
31285;BME280;56605;51.516;6.742;2022-07-29T06:42:44;101317.16;;;14.75;97.95
31285;BME280;56605;51.516;6.742;2022-07-29T06:45:10;101323.53;;;14.74;97.89
31285;BME280;56605;51.516;6.742;2022-07-29T06:47:37;101315.38;;;14.67;97.46
31285;BME280;56605;51.516;6.742;2022-07-29T06:50:03;101323.16;;;14.77;97.89
31285;BME280;56605;51.516;6.742;2022-07-29T06:52:29;101318.63;;;14.77;98.50
31285;BME280;56605;51.516;6.742;2022-07-29T06:54:54;101330.22;;;14.78;98.39
31285;BME280;56605;51.516;6.742;2022-07-29T06:57:21;101341.28;;;14.83;99.95
31285;BME280;56605;51.516;6.742;2022-07-29T06:59:46;101345.59;;;14.92;98.60
31285;BME280;56605;51.516;6.742;2022-07-29T07:02:12;101353.97;;;15.13;96.21
31285;BME280;56605;51.516;6.742;2022-07-29T07:04:37;101372.78;;;15.13;96.30
31285;BME280;56605;51.516;6.742;2022-07-29T07:07:02;101392.00;;;15.25;92.71
31285;BME280;56605;51.516;6.742;2022-07-29T07:09:28;101393.09;;;15.15;94.63
31285;BME280;56605;51.516;6.742;2022-07-29T07:11:53;101406.09;;;15.27;94.47
31285;BME280;56605;51.516;6.742;2022-07-29T07:14:18;101414.06;;;15.20;94.12
31285;BME280;56605;51.516;6.742;2022-07-29T07:16:43;101425.91;;;15.11;95.67
31285;BME280;56605;51.516;6.742;2022-07-29T07:19:09;101426.75;;;15.11;93.24
31285;BME280;56605;51.516;6.742;2022-07-29T07:21:34;101419.63;;;15.18;90.32
31285;BME280;56605;51.516;6.742;2022-07-29T07:24:00;101429.84;;;15.23;93.61
31285;BME280;56605;51.516;6.742;2022-07-29T07:26:27;101429.19;;;15.21;94.34
31285;BME280;56605;51.516;6.742;2022-07-29T07:28:52;101417.97;;;15.17;93.71
31285;BME280;56605;51.516;6.742;2022-07-29T07:31:18;101424.03;;;15.50;92.50
31285;BME280;56605;51.516;6.742;2022-07-29T07:33:43;101423.75;;;15.59;93.03
31285;BME280;56605;51.516;6.742;2022-07-29T07:36:09;101416.25;;;15.55;94.23
31285;BME280;56605;51.516;6.742;2022-07-29T07:38:34;101429.31;;;15.43;95.27
31285;BME280;56605;51.516;6.742;2022-07-29T07:41:00;101431.19;;;15.42;94.77
31285;BME280;56605;51.516;6.742;2022-07-29T07:43:26;101415.66;;;15.44;95.37
31285;BME280;56605;51.516;6.742;2022-07-29T07:45:51;101410.75;;;15.33;94.59
31285;BME280;56605;51.516;6.742;2022-07-29T07:48:16;101409.34;;;15.37;94.59
31285;BME280;56605;51.516;6.742;2022-07-29T07:50:42;101412.72;;;15.39;94.34
31285;BME280;56605;51.516;6.742;2022-07-29T07:53:08;101415.59;;;15.38;95.11
31285;BME280;56605;51.516;6.742;2022-07-29T07:55:39;101409.66;;;15.42;94.37
31285;BME280;56605;51.516;6.742;2022-07-29T07:58:04;101414.28;;;15.33;94.58
31285;BME280;56605;51.516;6.742;2022-07-29T08:00:30;101416.59;;;15.37;95.32
31285;BME280;56605;51.516;6.742;2022-07-29T08:02:57;101417.44;;;15.37;95.24
31285;BME280;56605;51.516;6.742;2022-07-29T08:05:22;101422.09;;;15.43;94.99
31285;BME280;56605;51.516;6.742;2022-07-29T08:07:47;101423.47;;;15.39;94.78
31285;BME280;56605;51.516;6.742;2022-07-29T08:10:17;101424.59;;;15.45;95.49
31285;BME280;56605;51.516;6.742;2022-07-29T08:13:05;101420.06;;;15.45;95.69
31285;BME280;56605;51.516;6.742;2022-07-29T08:15:31;101427.75;;;15.49;96.22
31285;BME280;56605;51.516;6.742;2022-07-29T08:17:57;101419.56;;;15.42;96.04
31285;BME280;56605;51.516;6.742;2022-07-29T08:20:22;101425.88;;;15.49;96.72
31285;BME280;56605;51.516;6.742;2022-07-29T08:22:47;101428.50;;;15.57;95.95
31285;BME280;56605;51.516;6.742;2022-07-29T08:25:13;101427.94;;;15.62;95.54
31285;BME280;56605;51.516;6.742;2022-07-29T08:27:38;101433.03;;;15.42;96.20
31285;BME280;56605;51.516;6.742;2022-07-29T08:30:04;101418.19;;;15.31;98.77
31285;BME280;56605;51.516;6.742;2022-07-29T08:32:29;101422.81;;;15.22;100.00
31285;BME280;56605;51.516;6.742;2022-07-29T08:34:56;101418.31;;;15.14;100.00
31285;BME280;56605;51.516;6.742;2022-07-29T08:37:21;101412.59;;;15.17;100.00
31285;BME280;56605;51.516;6.742;2022-07-29T08:39:47;101416.09;;;15.18;100.00
31285;BME280;56605;51.516;6.742;2022-07-29T08:42:12;101419.25;;;15.21;100.00
31285;BME280;56605;51.516;6.742;2022-07-29T08:44:38;101417.28;;;15.15;100.00
31285;BME280;56605;51.516;6.742;2022-07-29T08:47:03;101415.88;;;15.04;100.00
31285;BME280;56605;51.516;6.742;2022-07-29T08:49:29;101410.13;;;15.07;100.00
31285;BME280;56605;51.516;6.742;2022-07-29T08:51:57;101415.03;;;15.04;100.00
31285;BME280;56605;51.516;6.742;2022-07-29T08:54:23;101411.91;;;15.15;100.00
31285;BME280;56605;51.516;6.742;2022-07-29T08:56:49;101408.16;;;15.25;100.00
31285;BME280;56605;51.516;6.742;2022-07-29T08:59:16;101411.88;;;15.39;100.00
31285;BME280;56605;51.516;6.742;2022-07-29T09:01:45;101412.72;;;15.39;100.00
31285;BME280;56605;51.516;6.742;2022-07-29T09:04:12;101417.06;;;15.40;100.00
31285;BME280;56605;51.516;6.742;2022-07-29T09:06:42;101410.03;;;15.54;100.00
31285;BME280;56605;51.516;6.742;2022-07-29T09:09:08;101409.66;;;15.72;100.00
31285;BME280;56605;51.516;6.742;2022-07-29T09:11:34;101407.34;;;15.84;100.00
31285;BME280;56605;51.516;6.742;2022-07-29T09:13:59;101408.47;;;15.75;100.00
31285;BME280;56605;51.516;6.742;2022-07-29T09:16:25;101407.53;;;15.83;100.00
31285;BME280;56605;51.516;6.742;2022-07-29T09:18:50;101413.09;;;15.81;100.00
31285;BME280;56605;51.516;6.742;2022-07-29T09:21:16;101412.56;;;16.01;100.00
31285;BME280;56605;51.516;6.742;2022-07-29T09:26:33;101417.25;;;16.29;100.00
31285;BME280;56605;51.516;6.742;2022-07-29T09:28:59;101424.66;;;16.42;99.76
31285;BME280;56605;51.516;6.742;2022-07-29T09:31:36;101417.28;;;16.51;99.44
31285;BME280;56605;51.516;6.742;2022-07-29T09:34:03;101420.81;;;16.95;97.59
31285;BME280;56605;51.516;6.742;2022-07-29T09:36:28;101417.81;;;16.61;96.88
31285;BME280;56605;51.516;6.742;2022-07-29T09:39:01;101405.13;;;16.77;97.03
31285;BME280;56605;51.516;6.742;2022-07-29T09:41:27;101403.84;;;16.73;98.43
31285;BME280;56605;51.516;6.742;2022-07-29T09:43:56;101398.88;;;16.77;99.19
31285;BME280;56605;51.516;6.742;2022-07-29T09:46:23;101396.97;;;16.92;98.50
31285;BME280;56605;51.516;6.742;2022-07-29T09:49:08;101392.97;;;16.88;94.92
31285;BME280;56605;51.516;6.742;2022-07-29T09:51:34;101387.41;;;17.11;94.15
31285;BME280;56605;51.516;6.742;2022-07-29T09:54:00;101397.34;;;16.89;91.79
31285;BME280;56605;51.516;6.742;2022-07-29T09:56:41;101394.75;;;17.24;90.84
31285;BME280;56605;51.516;6.742;2022-07-29T09:59:08;101388.13;;;17.27;89.69
31285;BME280;56605;51.516;6.742;2022-07-29T10:01:34;101393.66;;;17.19;88.27
31285;BME280;56605;51.516;6.742;2022-07-29T10:04:00;101399.84;;;17.41;88.96
31285;BME280;56605;51.516;6.742;2022-07-29T10:06:26;101398.53;;;17.66;90.83
31285;BME280;56605;51.516;6.742;2022-07-29T10:08:51;101400.94;;;17.47;86.97
31285;BME280;56605;51.516;6.742;2022-07-29T10:11:18;101398.16;;;17.40;88.25
31285;BME280;56605;51.516;6.742;2022-07-29T10:13:45;101396.69;;;17.38;84.47
31285;BME280;56605;51.516;6.742;2022-07-29T10:16:12;101395.91;;;17.44;86.18
31285;BME280;56605;51.516;6.742;2022-07-29T10:18:40;101387.56;;;17.39;85.23
31285;BME280;56605;51.516;6.742;2022-07-29T10:21:06;101388.09;;;17.56;88.60
31285;BME280;56605;51.516;6.742;2022-07-29T10:23:33;101388.41;;;17.39;85.45
31285;BME280;56605;51.516;6.742;2022-07-29T10:25:59;101382.84;;;17.47;87.24
31285;BME280;56605;51.516;6.742;2022-07-29T10:28:25;101378.66;;;17.38;85.40
31285;BME280;56605;51.516;6.742;2022-07-29T10:30:51;101379.91;;;17.42;85.77
31285;BME280;56605;51.516;6.742;2022-07-29T10:36:15;101380.72;;;17.36;82.55
31285;BME280;56605;51.516;6.742;2022-07-29T10:39:10;101384.09;;;17.52;83.08
31285;BME280;56605;51.516;6.742;2022-07-29T10:42:10;101393.22;;;17.44;83.13
31285;BME280;56605;51.516;6.742;2022-07-29T10:44:40;101405.75;;;18.00;81.59
31285;BME280;56605;51.516;6.742;2022-07-29T10:47:06;101413.84;;;18.00;81.72
31285;BME280;56605;51.516;6.742;2022-07-29T10:49:31;101415.78;;;18.62;77.56
31285;BME280;56605;51.516;6.742;2022-07-29T10:52:05;101405.63;;;19.12;75.71
31285;BME280;56605;51.516;6.742;2022-07-29T10:59:45;101416.69;;;20.04;76.07
31285;BME280;56605;51.516;6.742;2022-07-29T11:05:03;101417.84;;;19.69;78.69
31285;BME280;56605;51.516;6.742;2022-07-29T11:07:30;101413.06;;;19.64;78.24
31285;BME280;56605;51.516;6.742;2022-07-29T11:15:12;101415.63;;;21.97;70.67
31285;BME280;56605;51.516;6.742;2022-07-29T11:23:28;101416.47;;;21.78;73.40
31285;BME280;56605;51.516;6.742;2022-07-29T11:28:43;101426.53;;;23.25;64.80
31285;BME280;56605;51.516;6.742;2022-07-29T11:31:13;101420.44;;;21.95;69.36
31285;BME280;56605;51.516;6.742;2022-07-29T11:33:41;101425.88;;;21.95;71.23
31285;BME280;56605;51.516;6.742;2022-07-29T11:36:15;101426.63;;;23.06;65.24
31285;BME280;56605;51.516;6.742;2022-07-29T11:38:41;101426.63;;;22.21;66.48
31285;BME280;56605;51.516;6.742;2022-07-29T11:41:25;101422.56;;;22.42;64.84
31285;BME280;56605;51.516;6.742;2022-07-29T11:43:58;101426.47;;;22.15;66.90
31285;BME280;56605;51.516;6.742;2022-07-29T11:46:49;101421.75;;;19.86;70.59
31285;BME280;56605;51.516;6.742;2022-07-29T11:49:24;101418.19;;;21.10;67.93
31285;BME280;56605;51.516;6.742;2022-07-29T11:51:54;101414.44;;;20.72;68.80
31285;BME280;56605;51.516;6.742;2022-07-29T11:54:30;101424.28;;;20.73;69.87
31285;BME280;56605;51.516;6.742;2022-07-29T11:56:57;101425.13;;;20.99;69.73
31285;BME280;56605;51.516;6.742;2022-07-29T11:59:24;101419.88;;;20.39;72.52
31285;BME280;56605;51.516;6.742;2022-07-29T12:01:57;101413.63;;;19.86;73.63
31285;BME280;56605;51.516;6.742;2022-07-29T12:04:23;101418.03;;;20.33;72.13
31285;BME280;56605;51.516;6.742;2022-07-29T12:06:50;101423.22;;;20.42;72.30
31285;BME280;56605;51.516;6.742;2022-07-29T12:09:17;101424.72;;;20.63;69.50
31285;BME280;56605;51.516;6.742;2022-07-29T12:11:43;101429.56;;;20.61;70.71
31285;BME280;56605;51.516;6.742;2022-07-29T12:14:08;101428.31;;;20.89;68.92
31285;BME280;56605;51.516;6.742;2022-07-29T12:16:35;101430.34;;;21.00;67.42
31285;BME280;56605;51.516;6.742;2022-07-29T12:19:03;101414.84;;;20.43;69.51
31285;BME280;56605;51.516;6.742;2022-07-29T12:21:42;101417.53;;;20.04;71.63
31285;BME280;56605;51.516;6.742;2022-07-29T12:24:08;101420.41;;;20.16;71.32
31285;BME280;56605;51.516;6.742;2022-07-29T12:26:33;101428.28;;;20.24;70.09
31285;BME280;56605;51.516;6.742;2022-07-29T12:28:59;101428.16;;;20.51;69.52
31285;BME280;56605;51.516;6.742;2022-07-29T12:31:24;101433.47;;;20.33;68.56
31285;BME280;56605;51.516;6.742;2022-07-29T12:33:53;101425.88;;;20.48;68.24
31285;BME280;56605;51.516;6.742;2022-07-29T12:36:18;101423.38;;;20.47;68.43
31285;BME280;56605;51.516;6.742;2022-07-29T12:38:44;101429.97;;;20.19;69.81
31285;BME280;56605;51.516;6.742;2022-07-29T12:41:10;101433.69;;;20.24;69.60
31285;BME280;56605;51.516;6.742;2022-07-29T12:43:35;101429.59;;;20.54;68.03
31285;BME280;56605;51.516;6.742;2022-07-29T12:46:12;101430.69;;;20.46;69.20
31285;BME280;56605;51.516;6.742;2022-07-29T12:48:40;101430.56;;;20.27;70.01
31285;BME280;56605;51.516;6.742;2022-07-29T12:51:06;101433.50;;;20.65;68.78
31285;BME280;56605;51.516;6.742;2022-07-29T12:53:33;101431.22;;;20.94;66.94
31285;BME280;56605;51.516;6.742;2022-07-29T12:55:59;101428.16;;;19.99;69.77
31285;BME280;56605;51.516;6.742;2022-07-29T12:58:28;101428.19;;;20.45;68.92
31285;BME280;56605;51.516;6.742;2022-07-29T13:01:15;101432.31;;;20.15;70.03
31285;BME280;56605;51.516;6.742;2022-07-29T13:03:54;101424.22;;;20.01;72.55
31285;BME280;56605;51.516;6.742;2022-07-29T13:11:42;101426.00;;;20.21;71.48
31285;BME280;56605;51.516;6.742;2022-07-29T13:14:11;101431.94;;;21.34;66.62
31285;BME280;56605;51.516;6.742;2022-07-29T13:16:38;101434.16;;;21.62;65.32
31285;BME280;56605;51.516;6.742;2022-07-29T13:19:32;101430.25;;;21.14;68.96
31285;BME280;56605;51.516;6.742;2022-07-29T13:21:58;101426.34;;;21.28;66.73
31285;BME280;56605;51.516;6.742;2022-07-29T13:24:23;101436.78;;;21.32;67.11
31285;BME280;56605;51.516;6.742;2022-07-29T13:26:48;101435.84;;;20.94;68.91
31285;BME280;56605;51.516;6.742;2022-07-29T13:29:14;101432.19;;;20.74;69.07
31285;BME280;56605;51.516;6.742;2022-07-29T13:31:39;101435.13;;;20.73;68.71
31285;BME280;56605;51.516;6.742;2022-07-29T13:34:04;101425.25;;;20.07;69.82
31285;BME280;56605;51.516;6.742;2022-07-29T13:36:30;101424.34;;;20.20;67.40